CYGK

Kingston Norman Rogers Airport

Kingston, Ontario, Canada
TAF CYGK 221239Z 2213/2301 VRB03KT P6SM FEW020 BECMG 2213/2215 13006KT FM221700 13007KT P6SM FEW020 BKN120 TEMPO 2217/2223 BKN020 BKN120 FM222300 12008KT P6SM BKN080 OVC140 RMK NXT FCST BY 222000Z
Issued Valid From Valid To
Jan-22 @ 12:39 UTC
(5 hours ago)
Jan-22 @ 13:00 UTC
(5 hours ago)
Jan-23 @ 01:00 UTC
(in 7 hours)
Jan-22 @ 13:00 to Jan-23 @ 01:00
TAF CYGK 221239Z 2213/2301 VRB03KT P6SM FEW020
Wind Visibility Clouds
Variable at 3 knots Greater than 6 miles
  • Few at 2,000' AGL
Expired Click to View Jan-22 @ 13:00 to Jan-22 @ 17:00
BECMG 2213/2215 13006KT
Wind Visibility Clouds
130° at 6 knots Greater than 6 miles
  • Few at 2,000' AGL
Temporary Jan-22 @ 17:00 to Jan-22 @ 23:00
TEMPO 2217/2223 BKN020 BKN120
Clouds
  • Broken at 2,000' AGL
  • Broken at 12,000' AGL
From Jan-22 @ 17:00 to Jan-22 @ 23:00
FM221700 13007KT P6SM FEW020 BKN120
Wind Visibility Clouds
130° at 7 knots Greater than 6 miles
  • Few at 2,000' AGL
  • Broken at 12,000' AGL
From Jan-22 @ 23:00 to Jan-23 @ 01:00
FM222300 12008KT P6SM BKN080 OVC140 RMK NXT FCST BY 222000Z
Wind Visibility Clouds
120° at 8 knots Greater than 6 miles
  • Broken at 8,000' AGL
  • Overcast at 14,000' AGL
TAF CYGK 221239Z 2213/2301 VRB03KT P6SM FEW020 BECMG 2213/2215 13006KT FM221700 13007KT P6SM FEW020 BKN120 TEMPO 2217/2223 BKN020 BKN120 FM222300 12008KT P6SM BKN080 OVC140 RMK NXT FCST BY 222000Z
Issued Jan-22 @ 12:39 UTC
(5 hours ago)
Valid From Jan-22 @ 13:00 UTC
(5 hours ago)
Valid To Jan-23 @ 01:00 UTC
(in 7 hours)
Jan-22 @ 13:00 - Jan-23 @ 01:00
Wind Visibility
Variable at 3 knots Greater than 6 miles
Clouds
  • Few at 2,000' AGL
Jan-22 @ 13:00 - Jan-22 @ 17:00
Wind Visibility
130° at 6 knots Greater than 6 miles
Clouds
  • Few at 2,000' AGL
Temporary Jan-22 @ 17:00 - Jan-22 @ 23:00
Clouds
  • Broken at 2,000' AGL
  • Broken at 12,000' AGL
From Jan-22 @ 17:00 - Jan-22 @ 23:00
Wind Visibility
130° at 7 knots Greater than 6 miles
Clouds
  • Few at 2,000' AGL
  • Broken at 12,000' AGL
From Jan-22 @ 23:00 - Jan-23 @ 01:00
Wind Visibility
120° at 8 knots Greater than 6 miles
Clouds
  • Broken at 8,000' AGL
  • Overcast at 14,000' AGL